createdAt,value
2019-01-26T00:04:53.518Z,3.24
2019-01-26T00:10:02.558Z,4.58
2019-01-26T00:15:11.502Z,4.99
2019-01-26T00:20:20.446Z,4.60
2019-01-26T00:25:29.311Z,3.53
2019-01-26T00:30:38.266Z,4.21
2019-01-26T00:35:47.197Z,2.94
2019-01-26T00:40:56.623Z,3.31
2019-01-26T00:46:05.665Z,5.89
2019-01-26T00:51:17.259Z,4.98
2019-01-26T00:56:23.225Z,5.72
2019-01-26T01:01:32.184Z,5.65
2019-01-26T01:06:41.229Z,4.06
2019-01-26T01:11:50.172Z,8.09
2019-01-26T01:16:59.210Z,11.27
2019-01-26T01:22:08.082Z,31.56
2019-01-26T01:27:17.019Z,44.14
2019-01-26T01:32:26.341Z,21.75
2019-01-26T01:37:35.283Z,34.96
2019-01-26T01:42:44.263Z,22.74
2019-01-26T01:47:53.270Z,19.74
2019-01-26T01:53:02.214Z,21.59
2019-01-26T01:58:11.260Z,17.44
2019-01-26T02:03:20.137Z,11.82
2019-01-26T02:08:29.083Z,10.40
2019-01-26T02:13:38.080Z,6.59
2019-01-26T02:18:47.050Z,9.55
2019-01-26T02:23:56.476Z,7.84
2019-01-26T02:29:05.418Z,6.75
2019-01-26T02:34:14.282Z,9.88
2019-01-26T02:39:23.231Z,9.48
2019-01-26T02:44:32.167Z,7.11
2019-01-26T02:49:41.206Z,9.77
2019-01-26T02:54:50.139Z,6.86
2019-01-26T02:59:59.075Z,8.28
2019-01-26T03:05:08.017Z,6.81
2019-01-26T03:10:17.060Z,7.34
2019-01-26T03:15:26.506Z,5.67
2019-01-26T03:20:35.551Z,4.18
2019-01-26T03:25:44.491Z,6.12
2019-01-26T03:30:53.359Z,6.08
2019-01-26T03:36:02.334Z,5.53
2019-01-26T03:41:11.381Z,4.73
2019-01-26T03:46:20.281Z,4.83
2019-01-26T03:51:29.301Z,4.20
2019-01-26T03:56:38.281Z,5.01
2019-01-26T04:01:47.295Z,4.44
2019-01-26T04:06:56.582Z,6.77
2019-01-26T04:12:05.521Z,4.34
2019-01-26T04:17:21.624Z,4.70
2019-01-26T04:22:23.297Z,5.59
2019-01-26T04:27:32.312Z,4.73
2019-01-26T04:32:41.325Z,3.77
2019-01-26T04:37:50.295Z,6.23
2019-01-26T04:42:59.154Z,6.01
2019-01-26T04:48:08.113Z,4.88
2019-01-26T04:53:17.067Z,4.27
2019-01-26T04:58:26.483Z,4.35
2019-01-26T05:03:35.311Z,5.10
2019-01-26T05:08:44.248Z,3.36
2019-01-26T05:13:53.286Z,4.41
2019-01-26T05:19:02.229Z,5.29
2019-01-26T05:24:11.249Z,2.99
2019-01-26T05:29:20.216Z,2.84
2019-01-26T05:34:29.204Z,1.69
2019-01-26T05:39:38.151Z,2.50
2019-01-26T05:44:47.087Z,4.44
2019-01-26T05:49:56.397Z,4.56
2019-01-26T05:55:05.358Z,4.71
2019-01-26T06:00:14.326Z,3.81
2019-01-26T06:05:23.274Z,1.81
2019-01-26T06:10:32.191Z,1.98
2019-01-26T06:15:41.123Z,3.13
2019-01-26T06:20:50.412Z,3.06
2019-01-26T06:25:59.330Z,4.94
2019-01-26T06:31:08.342Z,3.09
2019-01-26T06:36:17.314Z,4.05
2019-01-26T06:41:26.627Z,3.58
2019-01-26T06:46:35.582Z,3.37
2019-01-26T06:51:44.544Z,3.93
2019-01-26T06:56:53.577Z,6.87
2019-01-26T07:02:02.498Z,3.79
2019-01-26T07:07:11.646Z,4.78
2019-01-26T07:12:20.871Z,3.42
2019-01-26T07:17:31.855Z,8.12
2019-01-26T07:22:30.793Z,4.71
2019-01-26T07:27:39.769Z,4.69
2019-01-26T07:32:48.672Z,4.48
2019-01-26T07:37:57.647Z,3.68
2019-01-26T07:43:06.653Z,11.80
2019-01-26T07:48:16.835Z,3.46
2019-01-26T07:53:24.156Z,4.00
2019-01-26T07:58:32.969Z,10.34
2019-01-26T08:03:41.943Z,4.92
2019-01-26T08:08:50.923Z,6.05
2019-01-26T08:14:00.306Z,5.57
2019-01-26T08:19:09.285Z,6.39
2019-01-26T08:24:18.231Z,5.13
2019-01-26T08:29:27.131Z,4.93
2019-01-26T08:34:36.072Z,6.82
2019-01-26T08:39:45.014Z,5.50
2019-01-26T08:44:53.986Z,5.38
2019-01-26T08:50:03.015Z,3.64
2019-01-26T08:55:18.076Z,4.94
2019-01-26T09:00:20.561Z,6.98
2019-01-26T09:05:29.555Z,5.68
2019-01-26T09:10:38.551Z,3.66
2019-01-26T09:15:47.435Z,3.04
2019-01-26T09:20:56.377Z,4.68
2019-01-26T09:26:05.378Z,4.27
2019-01-26T09:31:14.358Z,2.76
2019-01-26T09:36:23.302Z,4.23
2019-01-26T09:41:32.236Z,4.32
2019-01-26T09:46:41.498Z,3.85
2019-01-26T09:51:50.594Z,4.63
2019-01-26T09:56:59.644Z,3.27
2019-01-26T10:02:08.682Z,2.58
2019-01-26T10:07:17.564Z,4.46
2019-01-26T10:12:26.531Z,3.68
2019-01-26T10:17:35.510Z,2.88
2019-01-26T10:22:44.537Z,4.83
2019-01-26T10:27:53.437Z,6.33
2019-01-26T10:33:02.366Z,3.88
2019-01-26T10:38:11.682Z,4.46
2019-01-26T10:43:20.678Z,4.11
2019-01-26T10:48:29.782Z,3.75
2019-01-26T10:53:38.814Z,4.36
2019-01-26T10:58:47.798Z,4.16
2019-01-26T11:03:56.741Z,2.92
2019-01-26T11:09:05.754Z,4.02
2019-01-26T11:14:14.785Z,4.13
2019-01-26T11:19:23.746Z,4.19
2019-01-26T11:24:32.746Z,3.86
2019-01-26T11:29:41.716Z,3.16
2019-01-26T11:34:50.762Z,2.52
2019-01-26T11:39:59.806Z,3.90
2019-01-26T11:45:09.942Z,6.15
2019-01-26T11:50:17.281Z,4.54
2019-01-26T11:55:26.641Z,6.15
2019-01-26T12:00:34.748Z,7.39
2019-01-26T12:05:43.691Z,4.50
2019-01-26T12:10:52.635Z,5.11
2019-01-26T12:16:01.678Z,4.72
2019-01-26T12:21:09.287Z,4.46
2019-01-26T12:26:18.358Z,3.98
2019-01-26T12:31:27.378Z,3.51
2019-01-26T12:36:36.417Z,3.17
2019-01-26T12:41:45.290Z,3.39
2019-01-26T12:46:54.302Z,4.78
2019-01-26T12:52:03.243Z,3.46
2019-01-26T12:57:12.606Z,3.36
2019-01-26T13:02:21.510Z,4.58
2019-01-26T13:07:30.490Z,4.59
2019-01-26T13:12:39.458Z,4.61
2019-01-26T13:17:53.123Z,1.76
2019-01-26T13:22:52.003Z,2.93
2019-01-26T13:28:00.959Z,3.01
2019-01-26T13:33:09.966Z,3.31
2019-01-26T13:38:18.911Z,2.94
2019-01-26T13:43:27.949Z,1.74
2019-01-26T13:48:36.929Z,2.09
2019-01-26T13:53:46.810Z,2.59
2019-01-26T13:58:54.370Z,2.63
2019-01-26T14:04:03.347Z,1.90
2019-01-26T14:09:12.430Z,4.01
2019-01-26T14:14:21.442Z,2.25
2019-01-26T14:19:30.310Z,2.49
2019-01-26T14:24:39.278Z,1.76
2019-01-26T14:29:48.321Z,2.56
2019-01-26T14:34:57.790Z,1.33
2019-01-26T14:40:06.787Z,3.27
2019-01-26T14:45:15.864Z,2.03
2019-01-26T14:50:24.734Z,2.91
2019-01-26T14:55:33.746Z,2.25
2019-01-26T15:00:42.789Z,2.12
2019-01-26T15:05:51.836Z,2.43
2019-01-26T15:11:00.703Z,2.57
2019-01-26T15:16:09.719Z,9.26
2019-01-26T15:21:18.583Z,10.57
2019-01-26T15:26:27.811Z,4.11
2019-01-26T15:31:36.874Z,7.10
2019-01-26T15:36:45.790Z,8.35
2019-01-26T15:41:54.659Z,5.64
2019-01-26T15:47:03.682Z,4.89
2019-01-26T15:52:12.718Z,7.03
2019-01-26T15:57:21.658Z,6.91
2019-01-26T16:02:30.630Z,5.59
2019-01-26T16:07:39.654Z,9.72
2019-01-26T16:12:48.629Z,11.56
2019-01-26T16:17:57.668Z,12.26
2019-01-26T16:23:09.527Z,13.99
2019-01-26T16:28:15.049Z,19.00
2019-01-26T16:33:24.071Z,16.09
2019-01-26T16:38:33.091Z,18.68
2019-01-26T16:43:41.968Z,17.05
2019-01-26T16:48:50.911Z,16.75
2019-01-26T16:53:59.850Z,18.70
2019-01-26T16:59:08.802Z,19.35
2019-01-26T17:04:17.828Z,16.81
2019-01-26T17:09:26.803Z,16.77
2019-01-26T17:14:35.781Z,16.04
2019-01-26T17:19:46.628Z,15.63
2019-01-26T17:24:45.578Z,16.64
2019-01-26T17:29:54.518Z,16.81
2019-01-26T17:35:03.463Z,16.72
2019-01-26T17:40:13.223Z,14.80
2019-01-26T17:45:22.194Z,18.00
2019-01-26T17:50:31.120Z,16.90
2019-01-26T17:55:40.026Z,14.60
2019-01-26T18:00:48.922Z,13.22
2019-01-26T18:05:58.265Z,24.94
2019-01-26T18:11:07.222Z,47.64
2019-01-26T18:16:16.546Z,66.39
2019-01-26T18:21:25.572Z,31.48
2019-01-26T18:26:38.846Z,49.58
2019-01-26T18:31:34.741Z,32.04
2019-01-26T18:36:43.582Z,38.42
2019-01-26T18:41:52.447Z,37.90
2019-01-26T18:47:01.315Z,47.42
2019-01-26T18:52:10.263Z,53.67
2019-01-26T18:57:19.261Z,49.93
2019-01-26T19:02:28.295Z,25.71
2019-01-26T19:07:37.241Z,27.21
2019-01-26T19:12:46.187Z,18.46
2019-01-26T19:17:55.129Z,17.58
2019-01-26T19:23:04.103Z,15.75
2019-01-26T19:28:13.028Z,19.60
2019-01-26T19:33:21.894Z,20.14
2019-01-26T19:38:30.838Z,18.99
2019-01-26T19:43:39.832Z,13.52
2019-01-26T19:48:48.771Z,17.37
2019-01-26T19:53:58.523Z,27.17
2019-01-26T19:59:10.669Z,16.48
2019-01-26T20:04:09.899Z,15.70
2019-01-26T20:09:18.925Z,14.64
2019-01-26T20:14:28.466Z,14.73
2019-01-26T20:19:38.202Z,15.82
2019-01-26T20:24:50.077Z,15.76
2019-01-26T20:29:49.730Z,14.90
2019-01-26T20:34:59.410Z,19.85
2019-01-26T20:40:08.931Z,18.13
2019-01-26T20:45:20.095Z,16.19
2019-01-26T20:50:23.109Z,18.14
2019-01-26T20:55:22.998Z,19.12
2019-01-26T21:00:32.993Z,19.56
2019-01-26T21:05:32.862Z,16.14
2019-01-26T21:10:55.171Z,17.19
2019-01-26T21:15:49.389Z,18.61
2019-01-26T21:20:50.757Z,33.07
2019-01-26T21:25:49.548Z,42.84
2019-01-26T21:30:59.114Z,69.08
2019-01-26T21:36:08.634Z,55.04
2019-01-26T21:41:17.946Z,76.83
2019-01-26T21:46:26.964Z,52.82
2019-01-26T21:51:39.140Z,26.34
2019-01-26T21:56:45.755Z,21.61
2019-01-26T22:01:55.539Z,21.24
2019-01-26T22:07:05.008Z,23.25
2019-01-26T22:12:13.983Z,15.81
2019-01-26T22:17:22.989Z,16.99
2019-01-26T22:22:31.938Z,16.42
2019-01-26T22:27:39.786Z,15.39
2019-01-26T22:32:48.698Z,13.44
2019-01-26T22:37:57.905Z,16.06
2019-01-26T22:43:06.914Z,15.48
2019-01-26T22:48:15.959Z,13.17
2019-01-26T22:53:25.063Z,11.00
2019-01-26T22:58:34.047Z,11.41
2019-01-26T23:03:43.095Z,10.74
2019-01-26T23:08:52.245Z,7.63
2019-01-26T23:14:01.205Z,7.13
2019-01-26T23:19:10.326Z,9.31
2019-01-26T23:24:19.411Z,9.75
2019-01-26T23:29:28.342Z,8.24
2019-01-26T23:34:37.254Z,4.65
2019-01-26T23:39:47.255Z,4.91
2019-01-26T23:44:46.225Z,5.51
2019-01-26T23:49:55.106Z,5.45
2019-01-26T23:55:04.110Z,4.63
